Latest Weather Observations for Curtin

IDW60801

Issued at 7:33 am WST Thursday 27 April 2017 (issued every 30 minutes, with the page automatically refreshed every 10 minutes)

About weather observations | Map of weather stations | Latest weather observations for WA | Other Formats
Station Details ID: 003080 Name: CURTIN AERO Lat: -17.58 Lon: 123.83 Height: 77.5 m
Data from the previous 72 hours. | See also: Recent months at Curtin
Date/Time
WST
Temp
°C
App
Temp
°C
Dew
Point
°C
Rel
Hum
%
Delta-T
°C
Wind Press
QNH
hPa
Press
MSL
hPa
Rain since
9am
mm
Dir  Spd
km/h
Gust
km/h
Spd
kts
Gust
kts
27/07:30am 26.3 23.7 15.0 49 6.8 ESE 22 33 12 18 1012.8 1012.3 0.0
27/07:00am 25.9 23.2 14.7 50 6.7 ESE 22 32 12 17 1012.5 1012.0 0.0
27/06:30am 25.4 23.0 14.5 51 6.5 ESE 20 30 11 16 1012.1 1011.6 0.0
27/06:00am 25.6 22.8 14.4 50 6.7 ESE 22 37 12 20 1011.7 1011.2 0.0
27/05:30am 25.7 22.6 14.5 50 6.7 ESE 24 39 13 21 1011.5 1011.0 0.0
27/05:00am 26.0 23.0 14.8 50 6.7 SE 24 37 13 20 1011.4 1010.9 0.0
27/04:30am 25.9 23.3 15.0 51 6.6 SE 22 32 12 17 1011.2 1010.7 0.0
27/04:00am 25.9 23.3 15.0 51 6.6 SSE 22 32 12 17 1011.3 1010.8 0.0
27/03:30am 26.3 23.7 15.0 49 6.8 SSE 22 32 12 17 1011.4 1010.9 0.0
27/03:00am 26.4 23.9 15.1 49 6.9 SSE 22 30 12 16 1011.3 1010.8 0.0
27/02:30am 26.8 24.3 15.2 49 7.1 SE 22 32 12 17 1011.3 1010.8 0.0
27/02:00am 27.1 24.6 15.1 47 7.3 SE 22 33 12 18 1011.2 1010.7 0.0
27/01:30am 27.3 25.4 15.3 48 7.3 SE 19 26 10 14 1011.5 1011.0 0.0
27/01:00am 27.8 25.3 15.1 46 7.7 SSE 22 30 12 16 1011.6 1011.1 0.0
27/12:30am 28.3 26.2 15.2 44 8.0 SSE 20 30 11 16 1011.8 1011.3 0.0
27/12:00am 28.4 25.6 15.3 45 8.0 SSE 24 32 13 17 1011.9 1011.4 0.0
 
Date/Time
WST
Temp
°C
App
Temp
°C
Dew
Point
°C
Rel
Hum
%
Delta-T
°C
Wind Press
QNH
hPa
Press
MSL
hPa
Rain since
9am
mm
Dir  Spd
km/h
Gust
km/h
Spd
kts
Gust
kts
26/11:30pm 28.9 26.9 15.4 44 8.3 SE 20 32 11 17 1012.0 1011.5 0.0
26/11:00pm 29.0 27.0 15.5 44 8.3 SSE 20 26 11 14 1012.1 1011.6 0.0
26/10:30pm 28.9 27.5 16.5 47 7.7 SSE 19 26 10 14 1012.2 1011.7 0.0
26/10:00pm 28.5 28.1 17.1 50 7.2 SSE 15 20 8 11 1012.3 1011.8 0.0
26/09:30pm 28.5 28.6 17.4 51 7.0 SSE 13 17 7 9 1012.3 1011.8 0.0
26/09:00pm 29.3 29.6 17.8 50 7.3 S 13 17 7 9 1012.3 1011.8 0.0
26/08:30pm 29.3 29.8 18.4 51 7.0 SSE 13 15 7 8 1012.2 1011.7 0.0
26/08:00pm 29.3 29.9 18.7 52 6.9 SSE 13 17 7 9 1012.1 1011.6 0.0
26/07:30pm 28.6 30.0 19.5 58 5.9 S 11 13 6 7 1011.7 1011.2 0.0
26/07:00pm 28.9 29.8 19.2 55 6.3 SSE 13 13 7 7 1011.3 1010.8 0.0
26/06:30pm 29.6 30.4 19.0 53 6.9 SSE 13 13 7 7 1010.9 1010.4 0.0
26/06:00pm 30.3 31.5 19.0 50 7.4 S 11 13 6 7 1010.6 1010.1 0.0
26/05:30pm 31.7 32.3 18.7 46 8.5 SSE 13 17 7 9 1010.2 1009.7 0.0
26/05:00pm 33.2 33.8 18.6 42 9.5 SSE 13 15 7 8 1009.8 1009.3 0.0
26/04:30pm 34.0 34.2 17.7 38 10.5 ESE 13 22 7 12 1009.6 1009.1 0.0
26/04:00pm 34.2 34.1 18.7 40 10.2 SSE 17 24 9 13 1009.4 1008.9 0.0
26/03:30pm 34.1 33.0 17.8 38 10.6 SSE 20 26 11 14 1009.2 1008.7 0.0
26/03:00pm 34.8 33.8 18.0 37 10.9 SE 20 30 11 16 1009.2 1008.7 0.0
26/02:30pm 34.8 33.8 17.5 35 11.2 SSE 19 30 10 16 1009.3 1008.8 0.0
26/02:00pm 34.7 33.5 18.3 38 10.7 SSE 22 33 12 18 1009.4 1008.9 0.0
26/01:30pm 34.4 33.4 18.0 37 10.7 SE 20 30 11 16 1009.7 1009.2 0.0
26/01:00pm 34.3 32.9 17.1 36 11.0 SE 20 30 11 16 1009.9 1009.4 0.0
26/12:30pm 34.9 34.3 18.9 39 10.5 ESE 20 30 11 16 1010.3 1009.8 0.0
26/12:00pm 33.7 32.1 17.4 37 10.5 SE 22 33 12 18 1010.6 1010.1 0.0
26/11:30am 33.5 31.8 18.0 39 10.0 SE 24 33 13 18 1011.0 1010.5 0.0
26/11:00am 33.4 32.3 18.7 41 9.6 ESE 22 32 12 17 1011.5 1011.0 0.0
26/10:30am 32.1 30.5 18.3 44 8.9 SE 24 32 13 17 1012.1 1011.6 0.0
26/10:00am 31.5 30.0 17.8 44 8.8 ESE 22 35 12 19 1012.5 1012.0 0.0
26/09:30am 31.2 30.0 17.5 44 8.8 SE 20 32 11 17 1012.6 1012.1 0.0
26/09:00am 30.6 29.6 18.0 47 8.1 SE 20 30 11 16 1012.7 1012.2 0.0
26/08:30am 29.1 26.6 17.0 48 7.6 SE 26 37 14 20 1012.7 1012.2 0.0
26/08:00am 29.3 27.6 17.2 48 7.7 SE 22 32 12 17 1012.4 1011.9 0.0
26/07:30am 28.6 26.7 16.8 48 7.4 SE 22 35 12 19 1012.3 1011.8 0.0
26/07:00am 27.1 25.0 16.1 51 6.8 SE 22 30 12 16 1012.1 1011.6 0.0
26/06:30am 26.1 24.8 15.8 53 6.3 SE 17 24 9 13 1011.7 1011.2 0.0
26/06:00am 25.9 24.1 15.6 53 6.3 SSE 19 24 10 13 1011.4 1010.9 0.0
26/05:30am 26.1 24.7 15.5 52 6.5 SSE 17 24 9 13 1011.3 1010.8 0.0
26/05:00am 26.4 25.5 15.8 52 6.5 SE 15 20 8 11 1011.3 1010.8 0.0
26/04:30am 26.5 25.6 15.8 51 6.6 SE 15 26 8 14 1011.2 1010.7 0.0
26/04:00am 26.9 25.9 15.6 50 6.9 SE 15 22 8 12 1011.4 1010.9 0.0
26/03:30am 27.3 27.3 16.3 51 6.8 SE 11 15 6 8 1011.5 1011.0 0.0
26/03:00am 27.5 28.1 16.8 52 6.7 ESE 9 11 5 6 1011.4 1010.9 0.0
26/02:30am 28.3 27.4 16.9 50 7.2 SSE 17 20 9 11 1011.6 1011.1 0.0
26/02:00am 26.9 30.0 22.1 75 3.2 SW 9 11 5 6 1011.5 1011.0 0.0
26/01:30am 26.7 30.7 22.1 76 3.1 WNW 4 7 2 4 1011.9 1011.4 0.0
26/01:00am 27.2 30.6 21.7 72 3.7 W 6 9 3 5 1011.9 1011.4 0.0
26/12:30am 27.7 30.1 20.8 66 4.6 ENE 9 11 5 6 1012.3 1011.8 0.0
26/12:00am 28.2 29.6 21.0 65 4.8 E 15 20 8 11 1012.7 1012.2 0.0
 
Date/Time
WST
Temp
°C
App
Temp
°C
Dew
Point
°C
Rel
Hum
%
Delta-T
°C
Wind Press
QNH
hPa
Press
MSL
hPa
Rain since
9am
mm
Dir  Spd
km/h
Gust
km/h
Spd
kts
Gust
kts
25/11:30pm 27.5 32.9 23.3 78 2.9 CALM 0 0 0 0 1012.0 1011.5 0.0
25/11:00pm 27.5 31.1 22.4 73 3.5 NNW 7 9 4 5 1012.0 1011.5 0.0
25/10:30pm 27.2 30.6 21.7 72 3.7 NNE 6 11 3 6 1012.2 1011.7 0.0
25/10:00pm 27.3 32.3 22.5 75 3.3 CALM 0 0 0 0 1012.1 1011.6 0.0
25/09:30pm 27.3 31.9 21.8 72 3.7 CALM 0 0 0 0 1012.2 1011.7 0.0
25/09:00pm 27.6 32.3 21.9 71 3.8 CALM 0 0 0 0 1012.3 1011.8 0.0
25/08:30pm 27.8 30.6 20.4 64 4.9 N 6 9 3 5 1012.3 1011.8 0.0
25/08:00pm 27.9 30.4 20.2 63 5.1 NNE 7 9 4 5 1012.0 1011.5 0.0
25/07:30pm 28.4 30.4 19.9 60 5.6 NE 9 13 5 7 1011.7 1011.2 0.0
25/07:00pm 29.2 30.9 20.9 61 5.5 ENE 13 19 7 10 1011.3 1010.8 0.0
25/06:30pm 30.3 32.3 20.8 56 6.3 ESE 11 20 6 11 1010.8 1010.3 0.0
25/06:00pm 30.2 33.7 22.1 62 5.5 SE 7 9 4 5 1010.2 1009.7 0.0
25/05:30pm 32.2 35.1 21.1 52 7.5 SSE 7 9 4 5 1009.7 1009.2 0.0
25/05:00pm 33.2 35.2 20.7 47 8.4 S 11 15 6 8 1009.4 1008.9 0.0
25/04:30pm 34.2 34.4 20.2 43 9.4 S 19 22 10 12 1009.2 1008.7 0.0
25/04:00pm 34.4 34.3 20.0 42 9.6 S 20 26 11 14 1009.0 1008.5 0.0
25/03:30pm 34.9 35.1 19.3 40 10.3 S 17 24 9 13 1008.8 1008.3 0.0
25/03:00pm 35.1 35.3 20.2 41 10.0 SSE 19 28 10 15 1008.7 1008.2 0.0
25/02:30pm 35.1 35.2 19.9 41 10.2 S 19 26 10 14 1008.8 1008.3 0.0
25/02:00pm 35.1 35.0 19.5 40 10.4 S 19 26 10 14 1009.0 1008.5 0.0
25/01:30pm 35.3 34.8 19.2 38 10.7 S 20 28 11 15 1009.4 1008.9 0.0
25/01:00pm 35.5 35.3 19.4 38 10.7 SSE 19 26 10 14 1009.7 1009.2 0.0
25/12:30pm 34.6 33.7 17.8 37 10.9 SSE 19 26 10 14 1010.0 1009.5 0.0
25/12:00pm 34.3 33.7 17.5 36 10.8 SSE 17 26 9 14 1010.4 1009.9 0.0
25/11:30am 35.2 35.3 19.1 38 10.6 SE 17 22 9 12 1010.8 1010.3 0.0
25/11:00am 34.1 33.8 17.3 36 10.8 SE 15 20 8 11 1011.2 1010.7 0.0
25/10:30am 33.5 33.1 18.0 39 10.0 SSE 17 24 9 13 1011.7 1011.2 0.0
25/10:00am 32.6 33.5 18.4 43 9.2 SE 11 17 6 9 1012.1 1011.6 0.0
25/09:30am 32.3 32.5 17.7 41 9.4 ESE 13 17 7 9 1012.4 1011.9 0.0
25/09:00am 31.3 31.2 17.9 44 8.6 ESE 15 20 8 11 1012.5 1012.0 0.0
25/08:30am 30.4 30.1 18.2 48 7.9 SE 17 20 9 11 1012.5 1012.0 0.0
25/08:00am 29.6 30.4 19.0 53 6.9 SE 13 17 7 9 1012.1 1011.6 0.0
25/07:30am 28.3 30.7 20.8 63 5.0 SSE 9 11 5 6 1011.9 1011.4 0.0
25/07:00am 26.4 29.4 22.0 77 3.0 S 9 11 5 6 1011.7 1011.2 0.0
25/06:30am 25.9 29.1 22.4 81 2.4 S 9 13 5 7 1011.5 1011.0 0.0
25/06:00am 25.7 28.8 22.8 84 2.0 S 11 15 6 8 1011.2 1010.7 0.0
25/05:30am 25.8 29.2 23.3 86 1.7 SSW 11 15 6 8 1010.9 1010.4 0.0
25/05:00am 25.7 30.0 24.3 92 1.0 SW 9 11 5 6 1010.7 1010.2 0.0
25/04:30am 25.5 30.0 24.6 95 0.6 WSW 9 11 5 6 1010.5 1010.0 0.0
25/04:00am 25.6 30.5 24.7 95 0.6 SW 7 9 4 5 1010.5 1010.0 0.0
25/03:30am 25.6 30.7 24.9 96 0.5 SW 7 9 4 5 1010.4 1009.9 0.0
25/03:00am 25.6 30.5 24.6 94 0.7 SW 7 9 4 5 1010.3 1009.8 0.0
25/02:30am 26.2 31.1 24.6 91 1.1 SW 7 9 4 5 1010.5 1010.0 0.0
25/02:00am 26.7 31.4 24.9 90 1.3 WSW 9 11 5 6 1010.7 1010.2 0.0
25/01:30am 26.8 30.9 24.5 87 1.6 WSW 11 13 6 7 1010.8 1010.3 0.0
25/01:00am 27.3 31.9 24.2 83 2.1 W 7 11 4 6 1011.2 1010.7 0.0
25/12:30am 27.8 31.8 24.4 82 2.4 W 11 13 6 7 1011.6 1011.1 0.0
25/12:00am 27.8 33.1 25.2 86 1.8 W 7 9 4 5 1011.7 1011.2 0.0
 
Date/Time
WST
Temp
°C
App
Temp
°C
Dew
Point
°C
Rel
Hum
%
Delta-T
°C
Wind Press
QNH
hPa
Press
MSL
hPa
Rain since
9am
mm
Dir  Spd
km/h
Gust
km/h
Spd
kts
Gust
kts
24/11:30pm 27.9 32.7 25.1 85 2.0 WNW 9 11 5 6 1011.9 1011.4 0.0
24/11:00pm 27.7 33.0 24.9 85 2.0 NNE 6 7 3 4 1012.0 1011.5 0.0
24/10:30pm 27.9 33.2 24.9 84 2.1 NNE 6 7 3 4 1012.1 1011.6 0.0
24/10:00pm 28.1 33.2 24.9 83 2.2 N 7 7 4 4 1012.1 1011.6 0.0
24/09:30pm 28.3 33.2 24.3 79 2.8 NNW 6 7 3 4 1012.0 1011.5 0.0
24/09:00pm 28.6 33.2 24.2 77 3.1 NW 7 9 4 5 1011.9 1011.4 0.0
24/08:30pm 28.8 33.6 24.4 77 3.1 NW 7 9 4 5 1011.7 1011.2 0.0
24/08:00pm 29.1 33.7 24.2 75 3.4 NNW 7 9 4 5 1011.7 1011.2 0.0
24/07:30pm 29.5 34.3 24.1 72 3.8 N 6 7 3 4 1011.3 1010.8 0.0
24/07:00pm 29.9 34.3 23.8 70 4.2 NNE 7 9 4 5 1011.1 1010.6 0.0
24/06:30pm 30.5 33.9 22.7 63 5.3 N 9 11 5 6 1010.7 1010.2 0.0
24/06:00pm 32.1 34.8 20.7 51 7.6 S 7 7 4 4 1010.4 1009.9 0.0
24/05:30pm 32.6 34.5 19.8 46 8.5 S 9 9 5 5 1010.1 1009.6 0.0
24/05:00pm 33.1 34.4 19.2 43 9.2 S 11 15 6 8 1009.8 1009.3 0.0
24/04:30pm 33.9 34.4 19.2 42 9.7 S 15 19 8 10 1009.6 1009.1 0.0
24/04:00pm 34.5 35.2 18.9 39 10.3 SSE 13 19 7 10 1009.5 1009.0 0.0
24/03:30pm 34.4 35.3 19.2 40 10.0 SE 13 17 7 9 1009.3 1008.8 0.0
24/03:00pm 35.2 36.3 19.6 40 10.4 SSE 13 20 7 11 1009.2 1008.7 0.0
24/02:30pm 34.7 35.7 19.5 40 10.1 SSE 13 20 7 11 1009.2 1008.7 0.0
24/02:00pm 35.0 37.8 20.9 43 9.5 SE 7 13 4 7 1009.4 1008.9 0.0
24/01:30pm 34.2 37.0 20.9 45 9.0 SSE 7 15 4 8 1009.7 1009.2 0.0
24/01:00pm 34.1 36.3 21.2 47 8.7 SSW 11 17 6 9 1010.0 1009.5 0.0
24/12:30pm 34.3 36.6 19.9 42 9.6 S 7 15 4 8 1010.4 1009.9 0.0
24/12:00pm 33.5 36.3 21.6 49 8.1 S 9 15 5 8 1010.9 1010.4 0.0
24/11:30am 32.6 35.5 21.1 50 7.8 SSW 7 11 4 6 1011.5 1011.0 0.0
24/11:00am 31.7 34.2 21.8 55 6.7 WSW 11 17 6 9 1011.9 1011.4 0.0
24/10:30am 31.3 33.5 22.6 60 6.0 W 15 22 8 12 1012.4 1011.9 0.0
24/10:00am 30.5 33.4 23.2 65 5.0 WNW 13 19 7 10 1013.1 1012.6 0.0
24/09:30am 30.2 32.8 22.6 63 5.2 NNW 13 20 7 11 1013.6 1013.1 0.0
24/09:00am 29.3 31.4 22.5 67 4.6 N 15 22 8 12 1013.9 1013.4 0.0
24/08:30am 27.9 29.6 22.4 72 3.7 N 17 26 9 14 1013.9 1013.4 0.0
24/08:00am 27.6 29.9 23.4 78 2.9 N 17 26 9 14 1013.9 1013.4 0.0

Other Formats:

Comma delimited format used in spreadsheet applications
http://www.bom.gov.au/fwo/IDW60801/IDW60801.94204.axf

JavaScript Object Notation format (JSON) in row-major order
http://www.bom.gov.au/fwo/IDW60801/IDW60801.94204.json